Federal Way, Washington
Current Conditions -  °F | °C
As of 4:53 AM on Thursday 18 Dec 2014 (Local Time) from KSEA Reporting Station
Overcast Overcast  
Wind Chill:   Ceiling: 3800
Heat Index:   Visibility: 10mi
Dew Point:   Wind: 5mph
Humidity: 90%   Direction: 140°SE
Pressure: 29.94"   Gusts: NA
Location:  47.3°N, 122.32°W
Report Text: KSEA 181253Z 14004KT 10SM FEW025 BKN038 OVC090 07/06 A2994 RMK AO2 SLP145 T00720056 $
Loading
Personal Weather Stations






























Interactive Weather Map New forecast layout! Learn more

10-Day Weather Forecast

Advertisements
Track Severe Weather on mobile